Terminal Aerodrome Forecast
Issued by NWS

Home | Current Version | Previous Version | Text Only | Print | Product List | Glossary On
Versions: 1 2 3 4 5 6 7 8 9 10 11 12 13 14 15 16 17 18
000
FTUS43 KAPX 242337
TAFMBL
TAF
KMBL 242337Z 2500/2524 21011G16KT P6SM BKN150 WS020/23040KT
     FM250300 25013G18KT P6SM VCSH OVC070
     FM250500 30012G19KT P6SM -SHRA OVC012
     FM250900 32012G20KT P6SM VCSH BKN018
     FM251600 32013G25KT P6SM VCSH BKN025=

USA.gov is the U.S. government's official web portal to all federal, state and local government web resources and services.